Terminal Aerodrome Forecast
Issued by NWS

Home | Current Version | Previous Version | Text Only | Print | Product List | Glossary On
Versions: 1 2 3 4 5 6 7 8 9 10 11 12
693
FTUS43 KOAX 250526
TAFCDR
TAF
KCDR 250526Z 2506/2606 VRB03KT P6SM SCT100
     FM251500 23005KT P6SM BKN100=

USA.gov is the U.S. government's official web portal to all federal, state and local government web resources and services.